Time;durP1;ratioP1;P1;durP2;ratioP2;P2;SDS_P1;SDS_P2;PMS_P1;PMS_P2;Temp;Humidity;BMP_temperature;BMP_pressure;BME280_temperature;BME280_humidity;BME280_pressure;Samples;Min_cycle;Max_cycle;Signal;HPM_P1;HPM_P2
2023/04/26 00:02:03;;;;;;;0.70;0.70;;;10.00;94.80;;;;;;5052282;28;20186;-71
2023/04/26 00:04:30;;;;;;;0.50;0.50;;;9.90;95.10;;;;;;5051512;28;20678;-70
2023/04/26 00:06:56;;;;;;;0.80;0.80;;;9.90;95.10;;;;;;5050521;28;20223;-71
2023/04/26 00:09:22;;;;;;;0.75;0.63;;;9.90;95.50;;;;;;5050597;28;20212;-71
2023/04/26 00:11:48;;;;;;;0.80;0.80;;;9.80;95.60;;;;;;5051150;28;20219;-73
2023/04/26 00:14:13;;;;;;;0.50;0.50;;;9.80;96.10;;;;;;5051361;28;20390;-73
2023/04/26 00:16:39;;;;;;;1.63;0.60;;;9.70;96.00;;;;;;5045825;28;20259;-72
2023/04/26 00:19:05;;;;;;;0.77;0.77;;;9.70;96.30;;;;;;5057543;28;20191;-72
2023/04/26 00:21:30;;;;;;;1.75;0.70;;;9.70;96.60;;;;;;5054114;28;20175;-72
2023/04/26 00:23:56;;;;;;;0.85;0.85;;;9.70;96.70;;;;;;5053670;28;20179;-72
2023/04/26 00:26:22;;;;;;;2.15;1.13;;;9.60;96.90;;;;;;5053070;28;20238;-70
2023/04/26 00:28:47;;;;;;;1.13;1.13;;;9.60;97.10;;;;;;5056506;28;20924;-70
2023/04/26 00:31:14;;;;;;;1.17;0.87;;;9.50;97.20;;;;;;5055113;28;20241;-71
2023/04/26 00:33:40;;;;;;;1.23;0.90;;;9.50;97.50;;;;;;5049500;28;20645;-71
2023/04/26 00:36:06;;;;;;;1.00;0.90;;;9.40;98.00;;;;;;5052773;28;20191;-71
2023/04/26 00:38:32;;;;;;;0.93;0.80;;;9.40;98.50;;;;;;5054037;28;20188;-71
2023/04/26 00:40:57;;;;;;;1.10;1.10;;;9.40;98.50;;;;;;5058951;28;20179;-72
2023/04/26 00:43:23;;;;;;;0.80;0.80;;;9.40;98.50;;;;;;5057077;28;20222;-71
2023/04/26 00:45:50;;;;;;;0.67;0.63;;;9.30;98.50;;;;;;5056220;28;20180;-71
2023/04/26 00:48:16;;;;;;;0.73;0.73;;;9.30;98.50;;;;;;5051485;28;20683;-71
2023/04/26 00:50:43;;;;;;;0.80;0.80;;;9.30;98.50;;;;;;5054602;28;20210;-71
2023/04/26 00:53:09;;;;;;;0.80;0.80;;;9.30;98.50;;;;;;5052268;28;20198;-71
2023/04/26 00:55:35;;;;;;;0.95;0.95;;;9.30;98.50;;;;;;5091548;28;20776;-71
2023/04/26 00:58:01;;;;;;;1.20;1.20;;;9.30;98.50;;;;;;5055465;28;20254;-71
2023/04/26 01:00:27;;;;;;;1.20;1.07;;;9.30;98.50;;;;;;5053912;28;20179;-73
2023/04/26 01:02:52;;;;;;;1.60;0.95;;;9.30;98.50;;;;;;5054695;28;20179;-72
2023/04/26 01:05:18;;;;;;;1.57;1.43;;;9.20;98.50;;;;;;5056022;28;20182;-73
2023/04/26 01:07:45;;;;;;;1.00;0.98;;;9.20;98.50;;;;;;5056198;28;20215;-70
2023/04/26 01:10:10;;;;;;;0.90;0.90;;;9.10;98.50;;;;;;5061865;28;20183;-70
2023/04/26 01:12:37;;;;;;;2.37;1.13;;;9.10;98.50;;;;;;5056737;28;20695;-72
2023/04/26 01:15:04;;;;;;;1.37;1.00;;;9.10;98.50;;;;;;5052042;28;20190;-72
2023/04/26 01:17:30;;;;;;;1.00;1.00;;;9.10;98.50;;;;;;5058682;28;20245;-71
2023/04/26 01:19:56;;;;;;;0.80;0.80;;;9.10;98.50;;;;;;5058127;28;20200;-71
2023/04/26 01:22:21;;;;;;;3.03;0.90;;;8.90;98.50;;;;;;5055118;28;20186;-71
2023/04/26 01:24:51;;;;;;;1.10;1.10;;;9.00;98.50;;;;;;5050852;28;20628;-73
2023/04/26 01:27:17;;;;;;;0.83;0.83;;;9.00;98.50;;;;;;5056719;28;20681;-70
2023/04/26 01:29:43;;;;;;;1.27;1.17;;;8.90;98.50;;;;;;5055809;28;20263;-71
2023/04/26 01:32:08;;;;;;;1.17;1.07;;;8.90;98.50;;;;;;5057237;28;20218;-69
2023/04/26 01:34:34;;;;;;;1.17;1.17;;;8.90;98.50;;;;;;5056343;28;20625;-72
2023/04/26 01:37:00;;;;;;;1.83;1.57;;;8.90;98.50;;;;;;5056621;28;20632;-71
2023/04/26 01:39:26;;;;;;;1.40;1.17;;;8.90;98.50;;;;;;5050173;28;20179;-72
2023/04/26 01:41:52;;;;;;;1.60;1.50;;;8.90;98.50;;;;;;5056822;28;20214;-72
2023/04/26 01:44:18;;;;;;;1.20;1.20;;;8.80;98.50;;;;;;5053736;28;20183;-71
2023/04/26 01:46:44;;;;;;;1.20;1.10;;;8.80;98.50;;;;;;5058606;28;20208;-71
2023/04/26 01:49:10;;;;;;;1.93;1.10;;;8.80;98.50;;;;;;5053852;28;20179;-72
2023/04/26 01:51:35;;;;;;;1.37;1.33;;;8.70;98.50;;;;;;5055700;28;20206;-71
2023/04/26 01:54:01;;;;;;;1.37;1.37;;;8.70;98.50;;;;;;5055902;28;20197;-71
2023/04/26 01:56:27;;;;;;;1.30;1.30;;;8.70;98.50;;;;;;5054895;28;20301;-71
2023/04/26 01:58:55;;;;;;;1.37;1.37;;;8.60;98.50;;;;;;5055667;28;20272;-71
2023/04/26 02:01:21;;;;;;;1.03;1.03;;;8.70;98.50;;;;;;5057195;28;20187;-71
2023/04/26 02:03:48;;;;;;;0.90;0.90;;;8.60;98.50;;;;;;5059438;28;20190;-71
2023/04/26 02:06:13;;;;;;;1.23;1.07;;;8.60;98.50;;;;;;5050496;28;20216;-71
2023/04/26 02:08:39;;;;;;;0.90;0.90;;;8.70;98.50;;;;;;5057442;28;20582;-71
2023/04/26 02:11:05;;;;;;;0.90;0.90;;;8.60;98.50;;;;;;5062190;28;20183;-71
2023/04/26 02:13:31;;;;;;;1.20;1.20;;;8.60;98.50;;;;;;5053918;28;20241;-71
2023/04/26 02:15:56;;;;;;;1.20;1.00;;;8.60;98.50;;;;;;5052726;28;20213;-71
2023/04/26 02:18:22;;;;;;;1.17;1.17;;;8.60;98.50;;;;;;5054607;28;20722;-72
2023/04/26 02:20:48;;;;;;;1.30;1.23;;;8.60;98.50;;;;;;5051301;28;20203;-72
2023/04/26 02:23:14;;;;;;;1.23;1.17;;;8.60;98.50;;;;;;5058062;28;20175;-71
2023/04/26 02:25:41;;;;;;;2.17;0.80;;;8.60;98.50;;;;;;5051535;28;20585;-71
2023/04/26 02:28:07;;;;;;;0.77;0.77;;;8.50;98.50;;;;;;5053216;28;21890;-71
2023/04/26 02:30:32;;;;;;;1.23;1.00;;;8.60;98.50;;;;;;5051316;28;20187;-71
2023/04/26 02:32:58;;;;;;;1.50;1.00;;;8.60;98.50;;;;;;5057584;28;20715;-71
2023/04/26 02:35:24;;;;;;;1.00;1.00;;;8.60;98.50;;;;;;5059286;28;20186;-71
2023/04/26 02:37:51;;;;;;;0.73;0.73;;;8.60;98.50;;;;;;5054269;28;20183;-71
2023/04/26 02:40:19;;;;;;;1.90;1.47;;;8.60;98.50;;;;;;5056545;28;20180;-71
2023/04/26 02:42:46;;;;;;;1.27;1.23;;;8.60;98.50;;;;;;5053532;28;20205;-71
2023/04/26 02:45:12;;;;;;;1.27;1.27;;;8.70;98.50;;;;;;5054325;28;20608;-71
2023/04/26 02:47:38;;;;;;;2.93;1.17;;;8.70;98.50;;;;;;5052131;28;20223;-71
2023/04/26 02:50:08;;;;;;;1.83;1.47;;;8.70;98.50;;;;;;5055679;28;21900;-71
2023/04/26 02:52:36;;;;;;;1.47;1.40;;;8.80;98.50;;;;;;5053294;28;20194;-72
2023/04/26 02:55:06;;;;;;;1.10;1.10;;;8.80;98.50;;;;;;5051096;28;20187;-71
2023/04/26 02:57:31;;;;;;;1.67;1.37;;;8.80;98.50;;;;;;5049598;28;20184;-71
2023/04/26 02:59:57;;;;;;;2.17;1.20;;;8.90;98.50;;;;;;5052239;28;20187;-71
2023/04/26 03:02:23;;;;;;;1.93;1.70;;;8.90;98.50;;;;;;5056687;28;20681;-71
2023/04/26 03:04:49;;;;;;;1.63;1.47;;;8.90;98.50;;;;;;5053980;28;20221;-71
2023/04/26 03:07:15;;;;;;;3.40;1.43;;;9.00;98.50;;;;;;5049794;28;20211;-71
2023/04/26 03:09:41;;;;;;;2.10;1.50;;;9.00;98.50;;;;;;5050468;28;20718;-71
2023/04/26 03:12:07;;;;;;;6.68;1.65;;;9.00;98.50;;;;;;5051540;28;20180;-71
2023/04/26 03:14:33;;;;;;;3.03;1.47;;;9.00;98.50;;;;;;5053577;28;20207;-72
2023/04/26 03:16:59;;;;;;;2.23;1.50;;;9.00;98.50;;;;;;5051016;28;20188;-71
2023/04/26 03:19:28;;;;;;;2.20;2.10;;;9.10;98.50;;;;;;5054546;28;20182;-72
2023/04/26 03:21:55;;;;;;;1.63;1.43;;;9.00;98.50;;;;;;5054278;28;20566;-72
2023/04/26 03:24:21;;;;;;;2.23;2.03;;;9.00;98.50;;;;;;5053057;28;20212;-72
2023/04/26 03:26:47;;;;;;;1.87;1.10;;;9.00;98.50;;;;;;5050376;28;20294;-72
2023/04/26 03:29:13;;;;;;;2.40;1.90;;;9.00;98.50;;;;;;5054966;28;20756;-72
2023/04/26 03:31:39;;;;;;;1.27;1.20;;;9.00;98.50;;;;;;5049708;28;20242;-72
2023/04/26 03:34:06;;;;;;;1.60;1.37;;;9.00;98.50;;;;;;5047010;28;20183;-72
2023/04/26 03:36:32;;;;;;;1.03;1.03;;;9.00;98.50;;;;;;5050247;28;20709;-72
2023/04/26 03:38:58;;;;;;;1.42;1.33;;;9.00;98.50;;;;;;5049236;28;20210;-72
2023/04/26 03:41:24;;;;;;;3.00;1.65;;;9.00;98.50;;;;;;5045714;28;20262;-72
2023/04/26 03:43:49;;;;;;;1.20;1.20;;;8.90;98.50;;;;;;5050735;28;20178;-72
2023/04/26 03:46:15;;;;;;;1.35;1.30;;;8.90;98.50;;;;;;5051869;28;20753;-72
2023/04/26 03:48:40;;;;;;;1.10;0.97;;;8.90;98.50;;;;;;5049707;28;20206;-72
2023/04/26 03:51:06;;;;;;;3.03;1.60;;;8.90;98.50;;;;;;5050067;28;20574;-72
2023/04/26 03:53:32;;;;;;;2.30;1.53;;;8.90;98.50;;;;;;5048177;28;20271;-71
2023/04/26 03:55:58;;;;;;;1.90;1.63;;;9.00;98.50;;;;;;5053521;28;20240;-70
2023/04/26 03:58:24;;;;;;;1.87;1.73;;;9.00;98.50;;;;;;5050682;28;20688;-70
2023/04/26 04:00:50;;;;;;;1.30;1.30;;;8.90;98.50;;;;;;5045422;28;20274;-71
2023/04/26 04:03:16;;;;;;;1.63;1.53;;;8.90;98.50;;;;;;5046541;28;20266;-71
2023/04/26 04:05:42;;;;;;;3.03;2.00;;;9.00;98.50;;;;;;5049727;28;20183;-71
2023/04/26 04:08:08;;;;;;;2.07;1.50;;;9.00;98.50;;;;;;5043323;28;20223;-70
2023/04/26 04:10:35;;;;;;;2.03;1.77;;;9.00;98.50;;;;;;5049743;28;20183;-71
2023/04/26 04:13:01;;;;;;;2.43;1.67;;;9.00;98.50;;;;;;5043407;28;20729;-71
2023/04/26 04:15:27;;;;;;;1.80;1.70;;;9.10;98.50;;;;;;5052014;28;20263;-71
2023/04/26 04:17:52;;;;;;;3.63;1.27;;;9.10;98.50;;;;;;5048626;28;20188;-71
2023/04/26 04:20:19;;;;;;;2.47;1.90;;;9.10;98.50;;;;;;5044344;28;20180;-71
2023/04/26 04:22:46;;;;;;;1.53;1.47;;;9.00;98.50;;;;;;5051427;28;20274;-71
2023/04/26 04:25:12;;;;;;;1.67;1.43;;;8.90;98.50;;;;;;5052327;28;20179;-71
2023/04/26 04:27:41;;;;;;;1.53;1.33;;;9.00;98.50;;;;;;5052509;28;20724;-71
2023/04/26 04:30:07;;;;;;;1.83;1.53;;;9.00;98.50;;;;;;5051508;28;20229;-70
2023/04/26 04:32:34;;;;;;;2.40;1.53;;;9.10;98.50;;;;;;5049376;28;20180;-72
2023/04/26 04:35:00;;;;;;;1.77;1.70;;;9.10;98.50;;;;;;5047829;28;20186;-73
2023/04/26 04:37:26;;;;;;;1.70;1.60;;;9.20;98.50;;;;;;5047430;28;20193;-72
2023/04/26 04:39:52;;;;;;;1.43;1.33;;;9.30;98.30;;;;;;5042252;28;20222;-71
2023/04/26 04:42:18;;;;;;;1.60;1.57;;;9.40;98.20;;;;;;5045510;28;20192;-70
2023/04/26 04:44:45;;;;;;;1.85;1.42;;;9.40;97.50;;;;;;5050596;28;20188;-70
2023/04/26 04:47:11;;;;;;;1.98;1.75;;;9.50;97.70;;;;;;5044769;28;20572;-70
2023/04/26 04:49:37;;;;;;;2.13;1.83;;;9.60;97.40;;;;;;5047558;28;20184;-70
2023/04/26 04:52:04;;;;;;;1.43;1.33;;;9.70;97.40;;;;;;5044522;28;20234;-73
2023/04/26 04:54:29;;;;;;;15.25;6.15;;;9.70;96.80;;;;;;5046506;28;20675;-70
2023/04/26 04:56:56;;;;;;;7.13;3.30;;;9.80;96.70;;;;;;5048540;28;20530;-71
2023/04/26 04:59:22;;;;;;;4.20;2.40;;;9.70;96.60;;;;;;5050669;28;20172;-71
2023/04/26 05:01:49;;;;;;;2.25;2.10;;;9.70;96.90;;;;;;5049508;28;20622;-73
2023/04/26 05:04:14;;;;;;;1.70;1.60;;;9.80;96.70;;;;;;5052567;28;20183;-72
2023/04/26 05:06:40;;;;;;;1.67;1.58;;;9.90;96.30;;;;;;5053771;28;20218;-71
2023/04/26 05:09:07;;;;;;;2.70;1.40;;;10.00;95.80;;;;;;5049001;28;20972;-71
2023/04/26 05:11:32;;;;;;;1.55;1.30;;;10.00;95.30;;;;;;5059510;28;20861;-72
2023/04/26 05:13:58;;;;;;;1.83;1.38;;;10.00;95.40;;;;;;5057124;28;20172;-72
2023/04/26 05:16:24;;;;;;;1.90;1.30;;;10.10;95.30;;;;;;5056904;28;20261;-72
2023/04/26 05:18:50;;;;;;;0.98;0.95;;;10.20;95.10;;;;;;5057629;28;20191;-71
2023/04/26 05:21:16;;;;;;;0.77;0.77;;;10.30;94.50;;;;;;5053601;28;20187;-71
2023/04/26 05:23:41;;;;;;;2.45;0.98;;;10.20;94.00;;;;;;5055888;28;20186;-71
2023/04/26 05:26:09;;;;;;;0.80;0.80;;;10.40;94.00;;;;;;5052674;28;20265;-71
2023/04/26 05:28:35;;;;;;;0.90;0.90;;;10.40;93.80;;;;;;5052439;28;20175;-71
2023/04/26 05:31:00;;;;;;;1.13;1.02;;;10.50;93.30;;;;;;5051335;28;20245;-71
2023/04/26 05:33:27;;;;;;;1.50;0.98;;;10.50;93.00;;;;;;5057771;28;20184;-71
2023/04/26 05:35:53;;;;;;;0.80;0.80;;;10.60;92.50;;;;;;5054064;28;20330;-71
2023/04/26 05:38:20;;;;;;;0.80;0.80;;;10.70;92.10;;;;;;5056608;28;20739;-71
2023/04/26 05:40:47;;;;;;;1.17;1.08;;;10.90;92.40;;;;;;5055695;28;20604;-71
2023/04/26 05:43:13;;;;;;;1.35;1.35;;;11.10;92.40;;;;;;5055998;28;20183;-71
2023/04/26 05:45:38;;;;;;;2.63;1.25;;;11.30;91.90;;;;;;5051447;28;20672;-70
2023/04/26 05:48:04;;;;;;;2.15;1.10;;;11.40;91.80;;;;;;5050960;28;20215;-70
2023/04/26 05:50:30;;;;;;;1.38;1.08;;;11.60;91.00;;;;;;5057003;28;20183;-71
2023/04/26 05:52:56;;;;;;;0.88;0.88;;;11.70;90.70;;;;;;5055749;28;20281;-70
2023/04/26 05:55:22;;;;;;;0.90;0.90;;;11.80;90.60;;;;;;5055765;28;20313;-70
2023/04/26 05:57:48;;;;;;;1.10;1.10;;;12.00;90.00;;;;;;5055228;28;20218;-70
2023/04/26 06:00:14;;;;;;;1.10;1.10;;;12.10;89.70;;;;;;5056149;28;20289;-70
2023/04/26 06:02:40;;;;;;;1.38;0.88;;;12.20;89.30;;;;;;5052196;28;20206;-70
2023/04/26 06:05:07;;;;;;;1.10;1.10;;;12.30;89.00;;;;;;5053631;28;20944;-72
2023/04/26 06:07:33;;;;;;;1.30;1.30;;;12.30;88.40;;;;;;5057172;28;20623;-71
2023/04/26 06:10:01;;;;;;;1.30;1.10;;;12.40;88.60;;;;;;5050593;28;20180;-71
2023/04/26 06:12:27;;;;;;;1.35;0.98;;;12.50;88.70;;;;;;5052715;28;20189;-71
2023/04/26 06:14:52;;;;;;;1.00;1.00;;;12.60;88.20;;;;;;5050862;28;20175;-70
2023/04/26 06:17:18;;;;;;;1.13;1.05;;;12.70;87.30;;;;;;5052926;28;20206;-73
2023/04/26 06:19:43;;;;;;;1.65;1.60;;;12.80;86.90;;;;;;5058383;28;20227;-71
2023/04/26 06:22:09;;;;;;;0.85;0.85;;;12.90;85.80;;;;;;5055831;28;20199;-71
2023/04/26 06:24:35;;;;;;;1.73;1.63;;;13.10;86.50;;;;;;5056695;28;20644;-72
2023/04/26 06:27:01;;;;;;;1.45;1.35;;;13.30;85.50;;;;;;5057563;28;20210;-71
2023/04/26 06:29:29;;;;;;;1.35;1.33;;;13.50;85.10;;;;;;5055673;28;20191;-71
2023/04/26 06:31:55;;;;;;;1.13;1.13;;;13.60;84.90;;;;;;5052275;28;20191;-71
2023/04/26 06:34:21;;;;;;;1.08;1.08;;;13.60;83.60;;;;;;5058691;28;20164;-71
2023/04/26 06:36:47;;;;;;;1.02;1.02;;;13.40;82.00;;;;;;5056262;28;20189;-71
2023/04/26 06:39:12;;;;;;;1.90;1.67;;;13.10;81.70;;;;;;5053814;28;20270;-71
2023/04/26 06:41:38;;;;;;;1.27;1.27;;;12.90;81.60;;;;;;5060010;28;20179;-71
2023/04/26 06:44:04;;;;;;;1.38;1.38;;;12.50;80.20;;;;;;5054416;28;20176;-71
2023/04/26 06:46:29;;;;;;;1.42;1.40;;;12.30;80.60;;;;;;5049902;28;20207;-71
2023/04/26 06:48:55;;;;;;;1.25;1.25;;;12.30;81.10;;;;;;5058280;28;20171;-71
2023/04/26 06:51:21;;;;;;;1.15;1.13;;;12.30;81.60;;;;;;5056107;28;20675;-71
2023/04/26 06:53:47;;;;;;;1.50;1.42;;;12.20;81.90;;;;;;5057994;28;20278;-71
2023/04/26 06:56:13;;;;;;;1.10;1.10;;;12.20;81.50;;;;;;5055612;28;20174;-69
2023/04/26 06:58:38;;;;;;;4.88;1.42;;;11.70;81.40;;;;;;5057602;28;20663;-71
2023/04/26 07:01:05;;;;;;;1.27;1.27;;;11.60;83.00;;;;;;5058516;28;20163;-71
2023/04/26 07:03:31;;;;;;;1.40;1.40;;;11.70;84.00;;;;;;5056607;28;20187;-71
2023/04/26 07:05:56;;;;;;;1.38;1.38;;;11.90;83.60;;;;;;5053458;28;20191;-71
2023/04/26 07:08:22;;;;;;;1.52;1.52;;;12.00;82.90;;;;;;5050555;28;21001;-71
2023/04/26 07:10:48;;;;;;;1.73;1.50;;;12.20;83.10;;;;;;5055076;28;20250;-71
2023/04/26 07:13:13;;;;;;;1.10;1.10;;;12.00;81.60;;;;;;5055204;28;20179;-71
2023/04/26 07:15:40;;;;;;;1.70;1.60;;;11.80;82.60;;;;;;5052524;28;20187;-71
2023/04/26 07:18:07;;;;;;;1.55;1.55;;;11.70;82.50;;;;;;5049629;28;20202;-70
2023/04/26 07:20:32;;;;;;;1.10;1.10;;;11.50;83.90;;;;;;5052414;28;20186;-70
2023/04/26 07:22:58;;;;;;;2.33;2.22;;;11.50;83.40;;;;;;5050433;28;20407;-71
2023/04/26 07:25:24;;;;;;;1.63;1.52;;;11.70;82.20;;;;;;5052496;28;20175;-71
2023/04/26 07:27:50;;;;;;;1.55;1.48;;;11.90;82.90;;;;;;5045481;28;20222;-71
2023/04/26 07:30:16;;;;;;;1.70;1.60;;;12.10;81.70;;;;;;5051654;28;20187;-71
2023/04/26 07:32:42;;;;;;;1.63;1.52;;;12.30;80.80;;;;;;5051773;28;20186;-71
2023/04/26 07:35:14;;;;;;;1.55;1.45;;;12.30;80.60;;;;;;5054636;28;20241;-72
2023/04/26 07:37:41;;;;;;;1.50;1.40;;;12.50;79.60;;;;;;5054454;28;20589;-73
2023/04/26 07:40:09;;;;;;;1.00;1.00;;;12.50;78.00;;;;;;5051905;28;20184;-72
2023/04/26 07:42:34;;;;;;;1.25;1.25;;;12.50;78.50;;;;;;5083827;28;20178;-74
2023/04/26 07:45:00;;;;;;;1.00;1.00;;;12.60;77.80;;;;;;5054336;28;20673;-74
2023/04/26 07:47:26;;;;;;;1.20;1.02;;;12.60;78.00;;;;;;5055665;28;20782;-74
2023/04/26 07:49:53;;;;;;;1.08;1.08;;;12.50;77.20;;;;;;5051864;28;20312;-74
2023/04/26 07:52:19;;;;;;;1.17;1.17;;;12.40;77.30;;;;;;5053431;28;20202;-73
2023/04/26 07:54:45;;;;;;;1.00;1.00;;;12.50;76.30;;;;;;5051729;28;20179;-74
2023/04/26 07:57:11;;;;;;;1.15;1.15;;;12.40;75.70;;;;;;5049589;28;20177;-74
2023/04/26 07:59:37;;;;;;;1.15;1.15;;;12.40;76.00;;;;;;5052285;28;20176;-73
2023/04/26 08:02:02;;;;;;;1.67;1.58;;;12.50;75.40;;;;;;5048264;28;20203;-72
2023/04/26 08:04:32;;;;;;;3.03;1.45;;;12.30;76.40;;;;;;5052382;28;20183;-72
2023/04/26 08:07:00;;;;;;;1.65;1.58;;;12.30;76.10;;;;;;5084460;28;20233;-73
2023/04/26 08:09:26;;;;;;;1.40;1.40;;;12.30;77.30;;;;;;5040501;28;20176;-72
2023/04/26 08:11:51;;;;;;;1.33;1.33;;;12.50;76.60;;;;;;5049652;28;20185;-72
2023/04/26 08:14:17;;;;;;;1.70;1.65;;;12.60;76.50;;;;;;5048402;28;20262;-73
2023/04/26 08:17:02;;;;;;;1.77;1.67;;;12.70;75.30;;;;;;5047067;28;20520;-73
2023/04/26 08:19:30;;;;;;;1.58;1.48;;;12.90;75.60;;;;;;5047549;28;20248;-72
2023/04/26 08:21:56;;;;;;;1.20;1.20;;;12.90;75.00;;;;;;5050745;28;20761;-72
2023/04/26 08:24:22;;;;;;;1.60;1.50;;;12.90;75.20;;;;;;5050636;28;20191;-72
2023/04/26 08:26:47;;;;;;;1.95;1.83;;;13.00;75.20;;;;;;5049799;28;20249;-72
2023/04/26 08:29:13;;;;;;;1.27;1.23;;;12.90;75.70;;;;;;5046550;28;20208;-72
2023/04/26 08:31:40;;;;;;;1.27;1.27;;;13.10;75.90;;;;;;5052654;28;20176;-72
2023/04/26 08:34:09;;;;;;;1.05;1.05;;;13.30;75.40;;;;;;5051666;28;20241;-72
2023/04/26 08:36:36;;;;;;;1.27;1.17;;;13.30;74.60;;;;;;5051735;28;20192;-73
2023/04/26 08:39:01;;;;;;;1.85;1.30;;;13.20;75.30;;;;;;5052828;28;20734;-72
2023/04/26 08:41:29;;;;;;;1.70;1.60;;;13.20;74.40;;;;;;5045637;28;20220;-73
2023/04/26 08:43:57;;;;;;;1.85;1.70;;;13.20;74.50;;;;;;5051919;28;20172;-70
2023/04/26 08:46:25;;;;;;;1.17;1.17;;;13.20;74.50;;;;;;5050963;28;20179;-70
2023/04/26 08:49:05;;;;;;;1.10;1.10;;;13.40;74.60;;;;;;5054863;28;20198;-72
2023/04/26 08:51:32;;;;;;;1.17;1.17;;;13.40;73.70;;;;;;5056500;28;20182;-71
2023/04/26 08:53:59;;;;;;;0.82;0.82;;;13.20;73.80;;;;;;5058751;28;20188;-71
2023/04/26 08:56:26;;;;;;;1.20;1.20;;;13.00;74.20;;;;;;5056971;28;20188;-73
2023/04/26 08:58:53;;;;;;;1.00;1.00;;;13.10;74.40;;;;;;5054611;28;20184;-73
2023/04/26 09:01:20;;;;;;;1.20;1.20;;;13.20;73.80;;;;;;5054397;28;20176;-73
2023/04/26 09:03:46;;;;;;;0.80;0.80;;;13.20;73.80;;;;;;5052192;28;20210;-73
2023/04/26 09:06:13;;;;;;;0.73;0.73;;;13.00;73.10;;;;;;5049274;28;20187;-73
2023/04/26 09:08:40;;;;;;;0.98;0.98;;;13.00;74.10;;;;;;5051759;28;20180;-72
2023/04/26 09:11:06;;;;;;;0.88;0.88;;;13.00;74.10;;;;;;5051987;28;20176;-73
2023/04/26 09:13:31;;;;;;;1.02;1.02;;;13.00;72.90;;;;;;5053136;28;20179;-70
2023/04/26 09:15:57;;;;;;;1.08;1.02;;;13.00;73.00;;;;;;5048882;28;20187;-73
2023/04/26 09:18:23;;;;;;;0.98;0.98;;;13.10;73.90;;;;;;5053333;28;20239;-72
2023/04/26 09:21:07;;;;;;;0.85;0.85;;;13.40;73.40;;;;;;5057076;28;20191;-72
2023/04/26 09:23:32;;;;;;;0.80;0.80;;;13.60;72.90;;;;;;5052789;28;20662;-72
2023/04/26 09:26:34;;;;;;;0.98;0.98;;;13.90;72.40;;;;;;5054210;28;20236;-73
2023/04/26 09:29:14;;;;;;;0.70;0.70;;;14.00;72.10;;;;;;5029135;28;22025;-71
2023/04/26 09:31:43;;;;;;;2.63;1.15;;;14.30;71.20;;;;;;5052456;28;20676;-73
2023/04/26 09:34:10;;;;;;;0.95;0.70;;;14.50;70.30;;;;;;5053211;28;20240;-73
2023/04/26 09:36:56;;;;;;;0.73;0.73;;;14.50;70.30;;;;;;5054907;28;20653;-73
2023/04/26 09:39:41;;;;;;;0.93;0.70;;;14.30;69.50;;;;;;5054962;28;20255;-73
2023/04/26 09:42:07;;;;;;;0.90;0.90;;;14.30;70.00;;;;;;5047087;28;20290;-73
2023/04/26 09:44:34;;;;;;;1.75;0.82;;;14.30;69.40;;;;;;5056491;28;20171;-73
2023/04/26 09:47:05;;;;;;;0.75;0.75;;;14.50;69.30;;;;;;5056497;28;20257;-73
2023/04/26 09:49:49;;;;;;;0.95;0.95;;;14.80;69.00;;;;;;5054996;28;20244;-72
2023/04/26 09:52:19;;;;;;;0.85;0.75;;;14.90;68.50;;;;;;5053878;28;20184;-73
2023/04/26 09:54:47;;;;;;;0.80;0.80;;;14.80;68.20;;;;;;5052850;28;20237;-73
2023/04/26 09:57:14;;;;;;;0.70;0.70;;;15.00;68.00;;;;;;5052994;28;20182;-73
2023/04/26 09:59:42;;;;;;;1.70;0.90;;;15.50;67.30;;;;;;5048173;28;20187;-72
2023/04/26 10:02:16;;;;;;;0.80;0.80;;;16.00;66.70;;;;;;5044933;28;20183;-71
2023/04/26 10:04:46;;;;;;;1.25;1.00;;;16.40;66.40;;;;;;5053753;28;20208;-71
2023/04/26 10:07:13;;;;;;;0.70;0.70;;;16.70;64.00;;;;;;5051134;28;20220;-71
2023/04/26 10:09:40;;;;;;;0.60;0.60;;;16.50;64.00;;;;;;5054904;28;20217;-71
2023/04/26 10:12:08;;;;;;;0.98;0.98;;;16.80;64.30;;;;;;5050695;28;20180;-71
2023/04/26 10:14:35;;;;;;;0.57;0.57;;;17.60;63.10;;;;;;5054677;28;20195;-71
2023/04/26 10:17:03;;;;;;;2.22;0.80;;;17.90;62.20;;;;;;5050805;28;20206;-71
2023/04/26 10:19:29;;;;;;;0.60;0.60;;;18.00;60.60;;;;;;5051152;28;20182;-71
2023/04/26 10:21:59;;;;;;;0.80;0.57;;;17.60;60.70;;;;;;5052053;28;20269;-71
2023/04/26 10:24:25;;;;;;;0.70;0.70;;;17.60;61.30;;;;;;5054059;28;20237;-71
2023/04/26 10:26:53;;;;;;;0.50;0.50;;;17.30;61.60;;;;;;5052082;28;20796;-71
2023/04/26 10:29:23;;;;;;;0.50;0.50;;;17.10;61.70;;;;;;5052560;28;20183;-70
2023/04/26 10:32:01;;;;;;;0.50;0.50;;;16.50;61.90;;;;;;5051553;28;20274;-70
2023/04/26 10:34:28;;;;;;;0.60;0.60;;;16.40;62.50;;;;;;5052109;28;20172;-73
2023/04/26 10:37:10;;;;;;;0.75;0.75;;;16.60;62.60;;;;;;5052563;28;20199;-72
2023/04/26 10:39:37;;;;;;;0.60;0.60;;;16.80;62.10;;;;;;5051983;28;20175;-71
2023/04/26 10:42:26;;;;;;;0.50;0.50;;;16.90;61.60;;;;;;5048650;28;20175;-72
2023/04/26 10:44:59;;;;;;;0.55;0.55;;;16.90;60.60;;;;;;5051041;28;20642;-70
2023/04/26 10:47:36;;;;;;;0.40;0.40;;;16.80;62.10;;;;;;5052970;28;20214;-72
2023/04/26 10:50:02;;;;;;;2.28;0.70;;;16.90;62.00;;;;;;5050867;28;20186;-71
2023/04/26 10:52:29;;;;;;;0.52;0.52;;;17.00;60.40;;;;;;5045795;28;20279;-71
2023/04/26 10:54:56;;;;;;;0.50;0.50;;;16.90;60.60;;;;;;5048136;28;20183;-70
2023/04/26 10:57:44;;;;;;;0.60;0.60;;;16.90;59.80;;;;;;5052587;28;20206;-70
2023/04/26 11:00:12;;;;;;;0.52;0.52;;;16.40;60.40;;;;;;5053699;28;20581;-70
2023/04/26 11:03:04;;;;;;;0.57;0.57;;;16.10;61.20;;;;;;5052984;28;20171;-70
2023/04/26 11:05:39;;;;;;;0.55;0.55;;;16.40;61.10;;;;;;5054509;28;20180;-70
2023/04/26 11:08:08;;;;;;;0.50;0.50;;;16.30;60.90;;;;;;5050210;28;20186;-70
2023/04/26 11:10:36;;;;;;;0.55;0.55;;;16.60;60.90;;;;;;5053879;28;20179;-69
2023/04/26 11:13:03;;;;;;;0.70;0.70;;;16.50;61.20;;;;;;5047382;28;20172;-70
2023/04/26 11:15:30;;;;;;;0.57;0.57;;;16.30;61.10;;;;;;5055183;28;20228;-69
2023/04/26 11:17:56;;;;;;;2.13;0.80;;;16.20;61.00;;;;;;5048470;28;20179;-70
2023/04/26 11:20:27;;;;;;;0.75;0.75;;;16.50;62.10;;;;;;5050448;28;20202;-69
2023/04/26 11:22:52;;;;;;;0.55;0.55;;;17.20;61.00;;;;;;5055022;28;20265;-70
2023/04/26 11:25:18;;;;;;;0.60;0.60;;;17.60;59.50;;;;;;5051387;28;20237;-70
2023/04/26 11:27:44;;;;;;;0.52;0.52;;;17.60;58.40;;;;;;5050171;28;20207;-70
2023/04/26 11:30:11;;;;;;;0.60;0.60;;;17.10;58.00;;;;;;5053080;28;20286;-69
2023/04/26 11:32:37;;;;;;;0.50;0.50;;;16.80;59.50;;;;;;5055412;28;20183;-70
2023/04/26 11:35:03;;;;;;;3.38;0.52;;;17.00;59.90;;;;;;5054484;28;20180;-69
2023/04/26 11:37:28;;;;;;;0.60;0.60;;;17.00;60.00;;;;;;5052411;28;20568;-70
2023/04/26 11:39:56;;;;;;;1.35;0.50;;;16.60;58.40;;;;;;5050079;28;20176;-70
2023/04/26 11:42:25;;;;;;;0.47;0.47;;;16.30;58.80;;;;;;5056612;28;20719;-69
2023/04/26 11:44:51;;;;;;;0.65;0.65;;;15.80;59.90;;;;;;5051252;28;20203;-69
2023/04/26 11:47:18;;;;;;;0.93;0.85;;;15.70;61.30;;;;;;5056750;28;20851;-69
2023/04/26 11:49:45;;;;;;;0.70;0.70;;;16.00;61.10;;;;;;5050613;28;20178;-69
2023/04/26 11:52:12;;;;;;;0.77;0.77;;;16.10;59.80;;;;;;5055782;28;20696;-69
2023/04/26 11:54:37;;;;;;;0.80;0.80;;;16.00;60.20;;;;;;5051446;28;20606;-69
2023/04/26 11:57:15;;;;;;;0.70;0.70;;;16.20;59.80;;;;;;5050922;28;20665;-70
2023/04/26 11:59:42;;;;;;;0.65;0.65;;;16.30;59.30;;;;;;5054598;28;20643;-70
2023/04/26 12:02:08;;;;;;;0.60;0.60;;;16.60;58.60;;;;;;5053890;28;20175;-70
2023/04/26 12:04:36;;;;;;;0.80;0.80;;;16.90;58.60;;;;;;5049706;28;20723;-69
2023/04/26 12:07:03;;;;;;;0.85;0.85;;;17.40;58.00;;;;;;5051874;28;20632;-69
2023/04/26 12:09:32;;;;;;;2.85;0.80;;;17.90;56.80;;;;;;5058209;28;20560;-69
2023/04/26 12:11:59;;;;;;;0.70;0.70;;;17.80;57.20;;;;;;5056122;28;20270;-70
2023/04/26 12:14:34;;;;;;;0.60;0.60;;;18.00;57.50;;;;;;5048515;28;20207;-69
2023/04/26 12:17:01;;;;;;;0.70;0.70;;;17.90;56.80;;;;;;5056876;28;20288;-69
2023/04/26 12:19:31;;;;;;;0.70;0.70;;;17.60;57.00;;;;;;5050815;28;20273;-69
2023/04/26 12:21:57;;;;;;;0.75;0.75;;;17.30;57.50;;;;;;5062304;28;20197;-70
2023/04/26 12:24:33;;;;;;;0.60;0.60;;;17.20;57.90;;;;;;5055359;28;20179;-69
2023/04/26 12:26:59;;;;;;;0.50;0.50;;;17.10;57.90;;;;;;5060055;28;20198;-70
2023/04/26 12:29:26;;;;;;;0.80;0.80;;;17.10;58.60;;;;;;5055687;28;20183;-69
2023/04/26 12:31:52;;;;;;;0.65;0.65;;;16.90;57.90;;;;;;5056756;28;20172;-69
2023/04/26 12:34:18;;;;;;;0.50;0.50;;;16.50;59.40;;;;;;5056157;28;20190;-69
2023/04/26 12:36:43;;;;;;;0.55;0.55;;;16.50;59.30;;;;;;5058370;28;20197;-69
2023/04/26 12:39:14;;;;;;;0.60;0.60;;;16.20;59.50;;;;;;5057849;28;20249;-69
2023/04/26 12:41:40;;;;;;;1.40;0.68;;;16.00;59.50;;;;;;5056267;28;20297;-70
2023/04/26 12:44:07;;;;;;;0.52;0.52;;;15.80;59.40;;;;;;5061134;28;20191;-69
2023/04/26 12:46:33;;;;;;;0.70;0.70;;;15.70;59.90;;;;;;5052722;28;20215;-69
2023/04/26 12:48:59;;;;;;;0.77;0.77;;;16.00;60.10;;;;;;5056766;28;20183;-69
2023/04/26 12:51:24;;;;;;;0.73;0.70;;;16.30;60.60;;;;;;5057062;28;20187;-69